Time;durP1;ratioP1;P1;durP2;ratioP2;P2;SDS_P1;SDS_P2;PMS_P1;PMS_P2;Temp;Humidity;BMP_temperature;BMP_pressure;BME280_temperature;BME280_humidity;BME280_pressure;Samples;Min_cycle;Max_cycle;Signal;HPM_P1;HPM_P2
2023/07/19 00:01:41;;;;;;;;;8.67;5.00;;;;;;;;5018033;28;45443;-80
2023/07/19 00:04:07;;;;;;;;;4.33;4.00;;;;;;;;5020653;28;46147;-80
2023/07/19 00:06:32;;;;;;;;;2.00;0.00;;;;;;;;5018056;28;45455;-81
2023/07/19 00:08:57;;;;;;;;;2.33;2.33;;;;;;;;5022240;28;45509;-81
2023/07/19 00:11:22;;;;;;;;;3.67;2.00;;;;;;;;5027551;28;45779;-81
2023/07/19 00:13:48;;;;;;;;;2.67;2.67;;;;;;;;5011162;28;48240;-80
2023/07/19 00:16:13;;;;;;;;;5.00;3.33;;;;;;;;5013465;28;45478;-80
2023/07/19 00:18:38;;;;;;;;;5.33;3.33;;;;;;;;5033909;28;45473;-79
2023/07/19 00:21:04;;;;;;;;;3.00;2.00;;;;;;;;5019336;28;45448;-80
2023/07/19 00:23:29;;;;;;;;;2.67;2.67;;;;;;;;5030643;28;45933;-79
2023/07/19 00:25:54;;;;;;;;;3.00;2.33;;;;;;;;5025731;28;45487;-78
2023/07/19 00:28:19;;;;;;;;;3.00;2.00;;;;;;;;5010624;28;45349;-79
2023/07/19 00:30:44;;;;;;;;;1.33;1.33;;;;;;;;5035953;28;45778;-81
2023/07/19 00:33:10;;;;;;;;;2.00;2.00;;;;;;;;5034530;28;45378;-81
2023/07/19 00:35:39;;;;;;;;;3.33;3.33;;;;;;;;5011134;28;45479;-79
2023/07/19 00:38:04;;;;;;;;;1.67;1.67;;;;;;;;5014391;28;45734;-78
2023/07/19 00:40:32;;;;;;;;;3.33;3.33;;;;;;;;5007036;28;46225;-79
2023/07/19 00:42:57;;;;;;;;;2.67;2.00;;;;;;;;4997117;28;47409;-81
2023/07/19 00:45:23;;;;;;;;;2.00;2.00;;;;;;;;5000848;28;45466;-79
2023/07/19 00:47:48;;;;;;;;;3.00;3.00;;;;;;;;5008179;28;44822;-81
2023/07/19 00:50:14;;;;;;;;;6.33;3.00;;;;;;;;5029803;28;45464;-81
2023/07/19 00:52:39;;;;;;;;;2.33;2.33;;;;;;;;5029102;28;45586;-80
2023/07/19 00:55:05;;;;;;;;;5.00;4.00;;;;;;;;5027821;28;45771;-80
2023/07/19 00:57:30;;;;;;;;;2.00;2.00;;;;;;;;5019630;28;45329;-81
2023/07/19 00:59:55;;;;;;;;;7.67;7.67;;;;;;;;5017863;28;45666;-78
2023/07/19 01:02:21;;;;;;;;;5.33;4.00;;;;;;;;5000117;28;47836;-79
2023/07/19 01:04:46;;;;;;;;;10.00;8.33;;;;;;;;5015593;28;45652;-79
2023/07/19 01:07:12;;;;;;;;;5.00;3.00;;;;;;;;5025113;28;45754;-80
2023/07/19 01:09:37;;;;;;;;;2.00;2.00;;;;;;;;4997319;28;45749;-79
2023/07/19 01:12:02;;;;;;;;;5.00;5.00;;;;;;;;5027007;28;45680;-83
2023/07/19 01:14:28;;;;;;;;;2.33;2.33;;;;;;;;5023088;28;45699;-80
2023/07/19 01:16:53;;;;;;;;;5.00;5.00;;;;;;;;5018746;28;46354;-81
2023/07/19 01:19:18;;;;;;;;;18.00;10.00;;;;;;;;5006553;28;45415;-79
2023/07/19 01:21:44;;;;;;;;;6.00;4.33;;;;;;;;5020456;28;45526;-82
2023/07/19 01:24:09;;;;;;;;;3.67;3.00;;;;;;;;5017702;28;45573;-81
2023/07/19 01:26:34;;;;;;;;;6.33;5.33;;;;;;;;5015960;28;45476;-81
2023/07/19 01:28:59;;;;;;;;;6.00;4.00;;;;;;;;4998892;28;46744;-79
2023/07/19 01:31:25;;;;;;;;;3.67;2.67;;;;;;;;5030777;28;45457;-82
2023/07/19 01:33:50;;;;;;;;;4.67;4.00;;;;;;;;5021646;28;45529;-81
2023/07/19 01:36:16;;;;;;;;;2.33;2.33;;;;;;;;5023297;28;45339;-81
2023/07/19 01:38:41;;;;;;;;;3.00;2.00;;;;;;;;5028361;28;45699;-82
2023/07/19 01:41:06;;;;;;;;;12.33;6.67;;;;;;;;5017974;28;46587;-81
2023/07/19 01:43:32;;;;;;;;;9.00;6.50;;;;;;;;5003183;28;45448;-80
2023/07/19 01:45:58;;;;;;;;;1.00;1.00;;;;;;;;5012755;28;45437;-82
2023/07/19 01:48:23;;;;;;;;;3.33;3.33;;;;;;;;5007503;28;45551;-80
2023/07/19 01:50:48;;;;;;;;;2.33;2.33;;;;;;;;5031836;28;45799;-81
2023/07/19 01:53:14;;;;;;;;;2.67;2.67;;;;;;;;5023760;28;45746;-81
2023/07/19 01:55:40;;;;;;;;;8.67;5.33;;;;;;;;5028796;28;45695;-80
2023/07/19 01:58:05;;;;;;;;;6.33;4.67;;;;;;;;5008128;28;45683;-81
2023/07/19 02:00:31;;;;;;;;;2.00;2.00;;;;;;;;5019038;28;45818;-78
2023/07/19 02:02:56;;;;;;;;;2.33;2.33;;;;;;;;5015924;28;45939;-79
2023/07/19 02:05:22;;;;;;;;;1.67;0.67;;;;;;;;5018815;28;45665;-80
2023/07/19 02:07:47;;;;;;;;;1.00;1.00;;;;;;;;5018076;28;45679;-80
2023/07/19 02:10:13;;;;;;;;;4.67;3.33;;;;;;;;5015917;28;45459;-79
2023/07/19 02:12:38;;;;;;;;;1.67;1.67;;;;;;;;5017675;28;45682;-79
2023/07/19 02:15:03;;;;;;;;;3.33;3.33;;;;;;;;5016946;28;45621;-79
2023/07/19 02:17:29;;;;;;;;;3.00;3.00;;;;;;;;5025731;28;45901;-78
2023/07/19 02:19:54;;;;;;;;;3.67;3.67;;;;;;;;5000401;28;48056;-80
2023/07/19 02:22:19;;;;;;;;;5.00;2.67;;;;;;;;5020512;28;45447;-79
2023/07/19 02:24:45;;;;;;;;;3.00;3.00;;;;;;;;5000929;28;45460;-79
2023/07/19 02:27:10;;;;;;;;;4.00;3.33;;;;;;;;5018947;28;45434;-81
2023/07/19 02:29:35;;;;;;;;;1.33;1.33;;;;;;;;5022986;28;45518;-79
2023/07/19 02:32:00;;;;;;;;;2.33;2.33;;;;;;;;5007231;28;45317;-78
2023/07/19 02:34:26;;;;;;;;;2.00;2.00;;;;;;;;5004072;28;45445;-79
2023/07/19 02:36:51;;;;;;;;;2.67;2.67;;;;;;;;5014814;28;45686;-78
2023/07/19 02:39:19;;;;;;;;;2.00;2.00;;;;;;;;5013119;28;45490;-80
2023/07/19 02:41:45;;;;;;;;;3.00;3.00;;;;;;;;4997477;28;45534;-79
2023/07/19 02:44:10;;;;;;;;;4.00;3.00;;;;;;;;5019738;28;45590;-79
2023/07/19 02:47:05;;;;;;;;;3.00;2.00;;;;;;;;5018635;28;45948;-81
2023/07/19 02:49:30;;;;;;;;;2.67;2.67;;;;;;;;5003896;28;45766;-79
2023/07/19 02:51:55;;;;;;;;;6.00;3.00;;;;;;;;5015329;28;45792;-79
2023/07/19 02:54:20;;;;;;;;;4.00;2.00;;;;;;;;5016304;28;45790;-79
2023/07/19 02:56:46;;;;;;;;;3.67;2.33;;;;;;;;5012026;28;46014;-79
2023/07/19 02:59:11;;;;;;;;;3.00;2.67;;;;;;;;5015679;28;46076;-81
2023/07/19 03:01:37;;;;;;;;;4.00;2.67;;;;;;;;5022933;28;45719;-79
2023/07/19 03:04:02;;;;;;;;;2.33;2.33;;;;;;;;5010734;28;45882;-80
2023/07/19 03:06:28;;;;;;;;;5.00;3.67;;;;;;;;5015898;28;45861;-79
2023/07/19 03:08:53;;;;;;;;;2.00;2.00;;;;;;;;5016972;28;45765;-80
2023/07/19 03:11:19;;;;;;;;;2.33;2.33;;;;;;;;5016680;28;45503;-78
2023/07/19 03:13:44;;;;;;;;;2.00;2.00;;;;;;;;4994862;28;45450;-79
2023/07/19 03:16:09;;;;;;;;;3.67;3.67;;;;;;;;4990085;28;47117;-79
2023/07/19 03:18:34;;;;;;;;;8.33;3.00;;;;;;;;5014506;28;47622;-80
2023/07/19 03:21:00;;;;;;;;;2.00;2.00;;;;;;;;5006004;28;45992;-80
2023/07/19 03:23:26;;;;;;;;;2.00;2.00;;;;;;;;5017097;28;45416;-78
2023/07/19 03:25:51;;;;;;;;;2.33;2.33;;;;;;;;5021114;28;45825;-80
2023/07/19 03:28:17;;;;;;;;;4.67;3.33;;;;;;;;5017605;28;45849;-80
2023/07/19 03:30:42;;;;;;;;;2.00;2.00;;;;;;;;5024525;28;45528;-80
2023/07/19 03:33:07;;;;;;;;;4.33;3.00;;;;;;;;5022666;28;45417;-82
2023/07/19 03:35:32;;;;;;;;;2.00;2.00;;;;;;;;5023867;28;45461;-79
2023/07/19 03:37:58;;;;;;;;;2.67;2.67;;;;;;;;5021855;28;45492;-78
2023/07/19 03:40:23;;;;;;;;;2.00;2.00;;;;;;;;5021454;28;45481;-79
2023/07/19 03:42:48;;;;;;;;;2.67;2.67;;;;;;;;5024127;28;45420;-79
2023/07/19 03:45:13;;;;;;;;;3.67;2.00;;;;;;;;5004116;28;46644;-81
2023/07/19 03:47:39;;;;;;;;;2.00;2.00;;;;;;;;5025876;28;46347;-79
2023/07/19 03:50:05;;;;;;;;;0.67;0.33;;;;;;;;5021009;28;45400;-79
2023/07/19 03:52:30;;;;;;;;;4.67;3.00;;;;;;;;5030361;28;46026;-79
2023/07/19 03:54:56;;;;;;;;;3.33;3.33;;;;;;;;5015692;28;45872;-79
2023/07/19 03:57:21;;;;;;;;;1.00;1.00;;;;;;;;5017574;28;45583;-81
2023/07/19 03:59:47;;;;;;;;;2.33;2.00;;;;;;;;5026964;28;45475;-79
2023/07/19 04:02:12;;;;;;;;;2.33;2.00;;;;;;;;5031928;28;44972;-81
2023/07/19 04:04:38;;;;;;;;;1.00;1.00;;;;;;;;5015293;28;44835;-78
2023/07/19 04:07:03;;;;;;;;;1.00;1.00;;;;;;;;5004257;28;47029;-80
2023/07/19 04:09:29;;;;;;;;;2.00;2.00;;;;;;;;5001091;28;45961;-80
2023/07/19 04:11:54;;;;;;;;;2.00;2.00;;;;;;;;5022881;28;45867;-79
2023/07/19 04:14:19;;;;;;;;;1.00;1.00;;;;;;;;5002502;28;46083;-80
2023/07/19 04:16:45;;;;;;;;;1.00;1.00;;;;;;;;4998849;28;45582;-78
2023/07/19 04:19:10;;;;;;;;;2.00;1.00;;;;;;;;5022516;28;45365;-80
2023/07/19 04:21:35;;;;;;;;;0.67;0.67;;;;;;;;5025624;28;45547;-81
2023/07/19 04:24:01;;;;;;;;;1.00;1.00;;;;;;;;5002088;28;47217;-80
2023/07/19 04:26:26;;;;;;;;;2.00;2.00;;;;;;;;5018361;28;46826;-80
2023/07/19 04:28:51;;;;;;;;;1.33;1.33;;;;;;;;5033466;28;45961;-81
2023/07/19 04:31:19;;;;;;;;;0.33;0.33;;;;;;;;5027476;28;45809;-81
2023/07/19 04:33:45;;;;;;;;;2.33;1.00;;;;;;;;5029006;28;45919;-79
2023/07/19 04:36:13;;;;;;;;;1.00;1.00;;;;;;;;5012483;28;47493;-80
2023/07/19 04:38:39;;;;;;;;;3.00;1.00;;;;;;;;5028876;28;45634;-79
2023/07/19 04:41:04;;;;;;;;;1.33;1.33;;;;;;;;5030753;28;45919;-80
2023/07/19 04:43:30;;;;;;;;;1.00;1.00;;;;;;;;5027294;28;45812;-78
2023/07/19 04:45:55;;;;;;;;;1.33;1.00;;;;;;;;5025276;28;45562;-80
2023/07/19 04:48:20;;;;;;;;;3.00;2.67;;;;;;;;4996410;28;45633;-79
2023/07/19 04:50:55;;;;;;;;;2.33;2.33;;;;;;;;5015934;28;45498;-80
2023/07/19 04:53:21;;;;;;;;;8.33;5.67;;;;;;;;4997361;28;46827;-81
2023/07/19 04:55:48;;;;;;;;;2.33;2.33;;;;;;;;5033219;28;47181;-79
2023/07/19 04:58:14;;;;;;;;;6.67;5.00;;;;;;;;5033391;28;45542;-79
2023/07/19 05:00:39;;;;;;;;;8.67;8.33;;;;;;;;5023325;28;45372;-80
2023/07/19 05:03:05;;;;;;;;;4.67;4.33;;;;;;;;5014387;28;45491;-80
2023/07/19 05:05:30;;;;;;;;;3.00;3.00;;;;;;;;5017151;28;45739;-79
2023/07/19 05:07:55;;;;;;;;;2.67;2.67;;;;;;;;5016755;28;45623;-80
2023/07/19 05:10:21;;;;;;;;;1.33;1.33;;;;;;;;4995222;28;45524;-79
2023/07/19 05:12:47;;;;;;;;;2.00;2.00;;;;;;;;4999000;28;45806;-79
2023/07/19 05:15:12;;;;;;;;;3.00;2.00;;;;;;;;5024085;28;46219;-78
2023/07/19 05:17:37;;;;;;;;;3.00;3.00;;;;;;;;5013669;28;44804;-80
2023/07/19 05:20:05;;;;;;;;;2.75;1.00;;;;;;;;5022322;28;45889;-80
2023/07/19 05:22:30;;;;;;;;;2.25;2.00;;;;;;;;4997125;28;46306;-81
2023/07/19 05:24:56;;;;;;;;;3.75;1.50;;;;;;;;4998979;28;47580;-79
2023/07/19 05:27:21;;;;;;;;;0.25;0.25;;;;;;;;5017292;28;45983;-80
2023/07/19 05:29:46;;;;;;;;;2.75;1.75;;;;;;;;5018525;28;45491;-81
2023/07/19 05:32:11;;;;;;;;;2.00;2.00;;;;;;;;5017230;28;46011;-80
2023/07/19 05:34:37;;;;;;;;;2.00;2.00;;;;;;;;5010062;28;45709;-81
2023/07/19 05:37:03;;;;;;;;;3.00;1.00;;;;;;;;5020452;28;45846;-83
2023/07/19 05:39:29;;;;;;;;;1.00;1.00;;;;;;;;5000334;28;45847;-79
2023/07/19 05:41:54;;;;;;;;;1.00;1.00;;;;;;;;5005605;28;45674;-81
2023/07/19 05:44:19;;;;;;;;;4.50;1.50;;;;;;;;5019048;28;45766;-80
2023/07/19 05:46:45;;;;;;;;;1.25;1.25;;;;;;;;5028447;28;45581;-81
2023/07/19 05:49:10;;;;;;;;;3.00;2.00;;;;;;;;5004177;28;45353;-80
2023/07/19 05:51:36;;;;;;;;;2.25;1.00;;;;;;;;5030849;28;45697;-80
2023/07/19 05:54:03;;;;;;;;;3.00;2.00;;;;;;;;5036681;28;45516;-81
2023/07/19 05:56:29;;;;;;;;;2.25;2.25;;;;;;;;5036975;28;45882;-80
2023/07/19 05:58:56;;;;;;;;;2.75;2.00;;;;;;;;5023794;28;46328;-85
2023/07/19 06:01:24;;;;;;;;;1.00;1.00;;;;;;;;5025826;28;45613;-81
2023/07/19 06:03:49;;;;;;;;;1.50;1.00;;;;;;;;5032856;28;45403;-84
2023/07/19 06:06:15;;;;;;;;;1.00;1.00;;;;;;;;5005642;28;45434;-82
2023/07/19 06:08:40;;;;;;;;;1.00;1.00;;;;;;;;5027054;28;45448;-84
2023/07/19 06:11:06;;;;;;;;;2.75;1.50;;;;;;;;5023962;28;45587;-83
2023/07/19 06:13:31;;;;;;;;;0.50;0.50;;;;;;;;5022482;28;45638;-85
2023/07/19 06:15:56;;;;;;;;;1.75;0.50;;;;;;;;5031341;28;45486;-85
2023/07/19 06:18:22;;;;;;;;;0.75;0.00;;;;;;;;5023544;28;45567;-80
2023/07/19 06:20:48;;;;;;;;;1.00;0.00;;;;;;;;5027832;28;45616;-85
2023/07/19 06:23:14;;;;;;;;;2.00;1.75;;;;;;;;5036687;28;45962;-83
2023/07/19 06:25:40;;;;;;;;;0.75;0.75;;;;;;;;5038490;28;45926;-80
2023/07/19 06:28:05;;;;;;;;;0.00;0.00;;;;;;;;5025108;28;45533;-83
2023/07/19 06:30:31;;;;;;;;;1.00;1.00;;;;;;;;5020514;28;45483;-82
2023/07/19 06:32:56;;;;;;;;;0.00;0.00;;;;;;;;5004300;28;46954;-83
2023/07/19 06:35:21;;;;;;;;;0.00;0.00;;;;;;;;5029069;28;45376;-81
2023/07/19 06:37:47;;;;;;;;;1.00;1.00;;;;;;;;5020663;28;45491;-82
2023/07/19 06:40:12;;;;;;;;;0.00;0.00;;;;;;;;5024069;28;45708;-81
2023/07/19 06:42:37;;;;;;;;;0.00;0.00;;;;;;;;5019722;28;45577;-82
2023/07/19 06:45:03;;;;;;;;;2.00;0.00;;;;;;;;5029358;28;45628;-84
2023/07/19 06:47:29;;;;;;;;;2.00;1.00;;;;;;;;5020891;28;45402;-82
2023/07/19 06:49:57;;;;;;;;;1.00;1.00;;;;;;;;5028751;28;45750;-82
2023/07/19 06:52:23;;;;;;;;;0.00;0.00;;;;;;;;5022571;28;45755;-82
2023/07/19 06:54:48;;;;;;;;;0.00;0.00;;;;;;;;5000018;28;45866;-81
2023/07/19 06:57:13;;;;;;;;;1.00;1.00;;;;;;;;5016873;28;45433;-85
2023/07/19 06:59:38;;;;;;;;;1.00;1.00;;;;;;;;5013367;28;46344;-82
2023/07/19 07:02:04;;;;;;;;;1.00;1.00;;;;;;;;5016783;28;45405;-82
2023/07/19 07:04:29;;;;;;;;;1.50;0.00;;;;;;;;5018927;28;46151;-82
2023/07/19 07:06:55;;;;;;;;;1.00;1.00;;;;;;;;5022264;28;45946;-82
2023/07/19 07:09:20;;;;;;;;;1.00;1.00;;;;;;;;5005967;28;46779;-85
2023/07/19 07:11:45;;;;;;;;;1.00;0.00;;;;;;;;5022233;28;45459;-82
2023/07/19 07:14:10;;;;;;;;;2.25;0.50;;;;;;;;5022346;28;45584;-82
2023/07/19 07:16:36;;;;;;;;;0.50;0.50;;;;;;;;5027671;28;45455;-81
2023/07/19 07:19:02;;;;;;;;;0.75;0.75;;;;;;;;5021854;28;45732;-85
2023/07/19 07:21:27;;;;;;;;;0.00;0.00;;;;;;;;5002234;28;45595;-84
2023/07/19 07:23:52;;;;;;;;;0.00;0.00;;;;;;;;5024048;28;45741;-82
2023/07/19 07:26:18;;;;;;;;;0.25;0.25;;;;;;;;5008017;28;45527;-82
2023/07/19 07:28:43;;;;;;;;;0.25;0.25;;;;;;;;5028340;28;45833;-82
2023/07/19 07:31:09;;;;;;;;;1.00;1.00;;;;;;;;5000680;28;45799;-83
2023/07/19 07:33:35;;;;;;;;;1.25;0.00;;;;;;;;5016472;28;45403;-82
2023/07/19 07:36:00;;;;;;;;;4.00;1.25;;;;;;;;5023006;28;45475;-83
2023/07/19 07:38:26;;;;;;;;;0.00;0.00;;;;;;;;5002725;28;45088;-84
2023/07/19 07:40:51;;;;;;;;;0.50;0.00;;;;;;;;4999698;28;47304;-81
2023/07/19 07:43:16;;;;;;;;;0.00;0.00;;;;;;;;5034416;28;45399;-83
2023/07/19 07:45:41;;;;;;;;;0.00;0.00;;;;;;;;5013899;28;45013;-84
2023/07/19 07:48:07;;;;;;;;;1.50;0.00;;;;;;;;5026443;28;45451;-85
2023/07/19 07:50:32;;;;;;;;;0.00;0.00;;;;;;;;5030552;28;45907;-82
2023/07/19 07:52:58;;;;;;;;;1.25;0.75;;;;;;;;5018391;28;45705;-82
2023/07/19 07:55:23;;;;;;;;;3.00;1.00;;;;;;;;4997338;28;45619;-82
2023/07/19 07:57:48;;;;;;;;;1.00;1.00;;;;;;;;5015255;28;45620;-83
2023/07/19 08:00:15;;;;;;;;;1.00;1.00;;;;;;;;5017715;28;46394;-83
2023/07/19 08:02:40;;;;;;;;;2.00;1.00;;;;;;;;5016895;28;45594;-82
2023/07/19 08:05:05;;;;;;;;;1.75;0.75;;;;;;;;5011545;28;45456;-82
2023/07/19 08:07:31;;;;;;;;;0.75;0.75;;;;;;;;5029542;28;45495;-83
2023/07/19 08:09:56;;;;;;;;;2.00;1.00;;;;;;;;4997018;28;48207;-83
2023/07/19 08:12:21;;;;;;;;;4.75;1.25;;;;;;;;5018889;28;45690;-82
2023/07/19 08:14:47;;;;;;;;;1.75;1.00;;;;;;;;5005667;28;45739;-83
2023/07/19 08:17:12;;;;;;;;;2.00;2.00;;;;;;;;5004359;28;46966;-83
2023/07/19 08:19:38;;;;;;;;;2.00;1.25;;;;;;;;5032440;28;46252;-84
2023/07/19 08:22:04;;;;;;;;;2.00;1.00;;;;;;;;5026699;28;45498;-85
2023/07/19 08:24:30;;;;;;;;;1.00;1.00;;;;;;;;4996272;28;45491;-84
2023/07/19 08:26:55;;;;;;;;;2.00;1.75;;;;;;;;5019938;28;46073;-81
2023/07/19 08:29:20;;;;;;;;;1.00;1.00;;;;;;;;5000906;28;48208;-83
2023/07/19 08:31:46;;;;;;;;;1.00;1.00;;;;;;;;5016413;28;45498;-84
2023/07/19 08:34:11;;;;;;;;;1.25;1.00;;;;;;;;5006134;28;45534;-80
2023/07/19 08:36:38;;;;;;;;;0.25;0.25;;;;;;;;5021878;28;45510;-82
2023/07/19 08:39:03;;;;;;;;;1.50;1.00;;;;;;;;5026014;28;45475;-81
2023/07/19 08:41:31;;;;;;;;;1.75;1.75;;;;;;;;5030018;28;45817;-84
2023/07/19 08:43:56;;;;;;;;;1.00;1.00;;;;;;;;5025063;28;45747;-82
2023/07/19 08:46:22;;;;;;;;;3.75;1.75;;;;;;;;5029330;28;45443;-83
2023/07/19 08:48:47;;;;;;;;;1.00;1.00;;;;;;;;5035148;28;45730;-82
2023/07/19 08:51:14;;;;;;;;;2.25;1.00;;;;;;;;5032904;28;45407;-81
2023/07/19 08:53:39;;;;;;;;;2.00;1.00;;;;;;;;5017367;28;45481;-83
2023/07/19 08:56:05;;;;;;;;;2.00;1.00;;;;;;;;5027417;28;45783;-84
2023/07/19 08:58:30;;;;;;;;;0.50;0.50;;;;;;;;5021811;28;45542;-82
2023/07/19 09:00:55;;;;;;;;;2.00;2.00;;;;;;;;5002405;28;45927;-82
2023/07/19 09:03:20;;;;;;;;;0.50;0.50;;;;;;;;5019936;28;45397;-82
2023/07/19 09:05:46;;;;;;;;;1.00;1.00;;;;;;;;5017223;28;45442;-83
2023/07/19 09:08:12;;;;;;;;;1.00;1.00;;;;;;;;5032579;28;46189;-82
2023/07/19 09:10:38;;;;;;;;;3.25;1.75;;;;;;;;5024238;28;45412;-81
2023/07/19 09:13:32;;;;;;;;;2.25;1.00;;;;;;;;5023433;28;45333;-84
2023/07/19 09:15:58;;;;;;;;;1.25;1.25;;;;;;;;5001501;28;46030;-83
2023/07/19 09:18:28;;;;;;;;;1.00;1.00;;;;;;;;4998630;28;46953;-82
2023/07/19 09:20:57;;;;;;;;;1.75;1.75;;;;;;;;4998056;28;45461;-83
2023/07/19 09:23:22;;;;;;;;;3.75;1.00;;;;;;;;5020311;28;45544;-83
2023/07/19 09:25:54;;;;;;;;;2.75;2.25;;;;;;;;5013868;28;45408;-82
2023/07/19 09:28:22;;;;;;;;;1.00;1.00;;;;;;;;5017385;28;47147;-82
2023/07/19 09:30:54;;;;;;;;;0.75;0.75;;;;;;;;5019732;28;45712;-82
2023/07/19 09:33:19;;;;;;;;;3.00;2.00;;;;;;;;5016519;28;45933;-83
2023/07/19 09:35:44;;;;;;;;;3.00;2.00;;;;;;;;5021462;28;45796;-84
2023/07/19 09:38:10;;;;;;;;;1.00;1.00;;;;;;;;5025999;28;46539;-83
2023/07/19 09:40:36;;;;;;;;;1.75;1.75;;;;;;;;5004680;28;45889;-81
2023/07/19 09:43:01;;;;;;;;;1.50;1.50;;;;;;;;5012687;28;45592;-82
2023/07/19 09:45:28;;;;;;;;;2.00;2.00;;;;;;;;4999475;28;45846;-81
2023/07/19 09:47:55;;;;;;;;;1.50;1.50;;;;;;;;5023061;28;45705;-80
2023/07/19 09:50:22;;;;;;;;;0.75;0.75;;;;;;;;5022239;28;45419;-81
2023/07/19 09:52:49;;;;;;;;;1.00;1.00;;;;;;;;5009258;28;45520;-81
2023/07/19 09:55:15;;;;;;;;;1.00;1.00;;;;;;;;5009613;28;45926;-81
2023/07/19 09:57:45;;;;;;;;;2.00;2.00;;;;;;;;5014353;28;45985;-80
2023/07/19 10:00:11;;;;;;;;;4.00;1.00;;;;;;;;5013751;28;45873;-84
2023/07/19 10:02:37;;;;;;;;;3.75;2.75;;;;;;;;5016061;28;46054;-81
2023/07/19 10:05:06;;;;;;;;;0.00;0.00;;;;;;;;5012253;28;46348;-81
2023/07/19 10:07:31;;;;;;;;;2.50;1.25;;;;;;;;4996888;28;47972;-82
2023/07/19 10:10:00;;;;;;;;;1.75;1.00;;;;;;;;5007169;28;45429;-82
2023/07/19 10:12:25;;;;;;;;;1.25;1.25;;;;;;;;5012317;28;46037;-85
2023/07/19 10:15:04;;;;;;;;;0.25;0.25;;;;;;;;4997829;28;46556;-84
2023/07/19 10:17:39;;;;;;;;;2.25;2.25;;;;;;;;5011823;28;46326;-81
2023/07/19 10:20:08;;;;;;;;;3.00;2.00;;;;;;;;5014635;28;45780;-83
2023/07/19 10:22:51;;;;;;;;;3.75;1.00;;;;;;;;5019035;28;45712;-81
2023/07/19 10:25:27;;;;;;;;;2.00;2.00;;;;;;;;5006444;28;45582;-81
2023/07/19 10:28:03;;;;;;;;;3.00;3.00;;;;;;;;5010263;28;47130;-85
2023/07/19 10:30:58;;;;;;;;;1.50;1.50;;;;;;;;5007700;28;45916;-83
2023/07/19 10:33:34;;;;;;;;;2.00;2.00;;;;;;;;4973276;28;45751;-85
2023/07/19 10:36:06;;;;;;;;;1.00;1.00;;;;;;;;5010379;28;45174;-86
2023/07/19 10:38:32;;;;;;;;;1.75;1.75;;;;;;;;5026665;28;45432;-84
2023/07/19 10:41:02;;;;;;;;;1.75;1.00;;;;;;;;5005367;28;45342;-83
2023/07/19 10:43:28;;;;;;;;;3.00;3.00;;;;;;;;5017332;28;45470;-84
2023/07/19 10:45:55;;;;;;;;;2.75;2.00;;;;;;;;5036146;28;44846;-87
2023/07/19 10:48:25;;;;;;;;;2.00;2.00;;;;;;;;5014510;28;45594;-86
2023/07/19 10:50:50;;;;;;;;;1.75;1.75;;;;;;;;5021128;28;45415;-87
2023/07/19 10:53:16;;;;;;;;;1.25;1.25;;;;;;;;5018322;28;45679;-85
2023/07/19 10:59:15;;;;;;;;;;;;;;;;;;;;;
2023/07/19 11:01:50;;;;;;;;;3.00;3.00;;;;;;;;5025712;28;72318;-89
2023/07/19 11:04:26;;;;;;;;;2.00;1.50;;;;;;;;5020230;28;45511;-90
2023/07/19 11:07:05;;;;;;;;;2.25;1.75;;;;;;;;5046112;28;45454;-88
2023/07/19 11:09:54;;;;;;;;;2.00;2.00;;;;;;;;5007138;28;45419;-88
2023/07/19 11:12:21;;;;;;;;;3.75;2.75;;;;;;;;5029348;28;45631;-86
2023/07/19 11:14:58;;;;;;;;;0.75;0.75;;;;;;;;5009666;28;45505;-87
2023/07/19 11:17:26;;;;;;;;;1.50;1.50;;;;;;;;5028739;28;45308;-87
2023/07/19 11:19:53;;;;;;;;;1.75;1.75;;;;;;;;5012283;28;45383;-86
2023/07/19 11:22:32;;;;;;;;;2.50;2.50;;;;;;;;5013031;28;45805;-87
2023/07/19 11:25:00;;;;;;;;;3.00;2.00;;;;;;;;5007744;28;45513;-87
2023/07/19 11:27:40;;;;;;;;;3.00;2.25;;;;;;;;5014557;28;46735;-89
2023/07/19 11:30:06;;;;;;;;;3.50;2.25;;;;;;;;5005667;28;46876;-84
2023/07/19 11:32:32;;;;;;;;;1.25;1.00;;;;;;;;5011927;28;45759;-86
2023/07/19 11:34:58;;;;;;;;;2.25;2.25;;;;;;;;5028817;28;45396;-86
2023/07/19 11:37:25;;;;;;;;;4.00;3.00;;;;;;;;5041502;28;45485;-87
2023/07/19 11:39:51;;;;;;;;;4.75;4.75;;;;;;;;5026390;28;46392;-87
2023/07/19 11:42:36;;;;;;;;;3.25;2.00;;;;;;;;5012055;28;45499;-87
2023/07/19 11:45:07;;;;;;;;;2.00;2.00;;;;;;;;5024896;28;45144;-88
2023/07/19 11:47:32;;;;;;;;;2.25;2.25;;;;;;;;5029219;28;45551;-87
2023/07/19 11:49:57;;;;;;;;;2.75;2.75;;;;;;;;5026938;28;45223;-87
2023/07/19 11:52:23;;;;;;;;;3.00;3.00;;;;;;;;5005904;28;45524;-84
2023/07/19 11:54:48;;;;;;;;;2.25;2.25;;;;;;;;5011689;28;45870;-86
2023/07/19 11:57:13;;;;;;;;;4.50;4.50;;;;;;;;5023225;28;44864;-85
2023/07/19 11:59:39;;;;;;;;;4.00;2.00;;;;;;;;5008521;28;46443;-85
2023/07/19 12:02:08;;;;;;;;;3.00;2.25;;;;;;;;5018752;28;45329;-86
2023/07/19 12:04:34;;;;;;;;;3.00;1.50;;;;;;;;5030745;28;45881;-85
2023/07/19 12:06:59;;;;;;;;;3.00;3.00;;;;;;;;5009604;28;45699;-85
2023/07/19 12:09:24;;;;;;;;;2.00;2.00;;;;;;;;5023937;28;45499;-84
2023/07/19 12:11:50;;;;;;;;;2.00;2.00;;;;;;;;5032400;28;44791;-85
2023/07/19 12:14:16;;;;;;;;;3.00;3.00;;;;;;;;5027035;28;45690;-84
2023/07/19 12:16:42;;;;;;;;;2.00;2.00;;;;;;;;5005136;28;45652;-86
2023/07/19 12:19:09;;;;;;;;;1.00;1.00;;;;;;;;5019210;28;46630;-84
2023/07/19 12:21:35;;;;;;;;;3.75;3.75;;;;;;;;5008129;28;45869;-85
2023/07/19 12:24:00;;;;;;;;;2.00;2.00;;;;;;;;5019575;28;45434;-83
2023/07/19 12:26:29;;;;;;;;;3.50;2.25;;;;;;;;5033197;28;45485;-86
2023/07/19 12:28:54;;;;;;;;;4.00;3.00;;;;;;;;5002415;28;47390;-84
2023/07/19 12:31:35;;;;;;;;;1.00;1.00;;;;;;;;5008956;28;45200;-86
2023/07/19 12:34:00;;;;;;;;;1.00;1.00;;;;;;;;5029413;28;45418;-86
2023/07/19 12:36:26;;;;;;;;;1.75;1.00;;;;;;;;5002605;28;46281;-86
2023/07/19 12:38:51;;;;;;;;;2.00;2.00;;;;;;;;5029611;28;45388;-84
2023/07/19 12:41:16;;;;;;;;;1.75;1.75;;;;;;;;4991274;28;45717;-84
2023/07/19 12:43:42;;;;;;;;;2.25;2.00;;;;;;;;5023687;28;45345;-84
2023/07/19 12:46:07;;;;;;;;;1.75;1.75;;;;;;;;5018205;28;45484;-84
2023/07/19 12:48:33;;;;;;;;;2.00;2.00;;;;;;;;5004056;28;47413;-84
2023/07/19 12:50:59;;;;;;;;;2.00;1.00;;;;;;;;5018452;28;45502;-84
2023/07/19 12:53:27;;;;;;;;;2.00;2.00;;;;;;;;5013407;28;45787;-85
2023/07/19 12:55:53;;;;;;;;;0.25;0.25;;;;;;;;4989417;28;46135;-84
2023/07/19 12:58:22;;;;;;;;;4.25;2.50;;;;;;;;5012962;28;45827;-84
2023/07/19 13:00:47;;;;;;;;;2.50;1.50;;;;;;;;4998038;28;45649;-82
2023/07/19 13:03:13;;;;;;;;;0.50;0.50;;;;;;;;5002150;28;45523;-83
2023/07/19 13:05:38;;;;;;;;;1.00;1.00;;;;;;;;5001440;28;45166;-83
2023/07/19 13:08:04;;;;;;;;;3.00;1.25;;;;;;;;4999355;28;45468;-83
2023/07/19 13:10:29;;;;;;;;;1.00;1.00;;;;;;;;4997782;28;45628;-84
2023/07/19 13:12:55;;;;;;;;;1.25;1.25;;;;;;;;5009433;28;45410;-84
2023/07/19 13:15:23;;;;;;;;;3.00;2.25;;;;;;;;5007004;28;45773;-84
2023/07/19 13:18:22;;;;;;;;;2.25;2.25;;;;;;;;5011123;28;47950;-88
2023/07/19 13:20:49;;;;;;;;;1.00;1.00;;;;;;;;5004544;28;45456;-84
2023/07/19 13:23:17;;;;;;;;;2.50;1.50;;;;;;;;5003194;28;45487;-85
2023/07/19 13:25:43;;;;;;;;;2.75;1.00;;;;;;;;5002844;28;44908;-85
2023/07/19 13:28:17;;;;;;;;;2.00;1.00;;;;;;;;5007721;28;48295;-85
2023/07/19 13:30:48;;;;;;;;;3.25;2.50;;;;;;;;5001150;28;45482;-85
2023/07/19 13:33:19;;;;;;;;;2.50;2.50;;;;;;;;5003738;28;45565;-85
2023/07/19 13:35:44;;;;;;;;;3.75;2.00;;;;;;;;4995477;28;45694;-85
2023/07/19 13:38:09;;;;;;;;;2.00;2.00;;;;;;;;5009127;28;45887;-85
2023/07/19 13:40:38;;;;;;;;;1.00;1.00;;;;;;;;4999931;28;45943;-84
2023/07/19 13:43:04;;;;;;;;;1.00;1.00;;;;;;;;4996977;28;45753;-84
2023/07/19 13:45:30;;;;;;;;;1.00;1.00;;;;;;;;5001671;28;45696;-88
2023/07/19 13:48:00;;;;;;;;;1.00;1.00;;;;;;;;4999721;28;47213;-86
2023/07/19 13:50:29;;;;;;;;;0.25;0.25;;;;;;;;5002972;28;45730;-87
2023/07/19 13:52:55;;;;;;;;;3.50;2.50;;;;;;;;5008590;28;45384;-85
2023/07/19 13:55:20;;;;;;;;;5.00;2.00;;;;;;;;5010336;28;45396;-84
2023/07/19 13:57:47;;;;;;;;;1.00;1.00;;;;;;;;5009373;28;46226;-85
2023/07/19 14:00:16;;;;;;;;;0.50;0.50;;;;;;;;5002950;28;45523;-82
2023/07/19 14:02:45;;;;;;;;;1.00;1.00;;;;;;;;4996613;28;45796;-86
2023/07/19 14:05:13;;;;;;;;;2.50;2.50;;;;;;;;4984791;28;45909;-87
2023/07/19 14:07:43;;;;;;;;;1.75;1.00;;;;;;;;4991265;28;45550;-85
2023/07/19 14:10:17;;;;;;;;;1.00;1.00;;;;;;;;4999467;28;45477;-83
2023/07/19 14:12:43;;;;;;;;;1.25;1.00;;;;;;;;5002987;28;45431;-86
2023/07/19 14:15:09;;;;;;;;;2.00;1.25;;;;;;;;4998246;28;44762;-86
2023/07/19 14:17:34;;;;;;;;;2.00;1.00;;;;;;;;5005723;28;46439;-87
2023/07/19 14:20:00;;;;;;;;;2.00;1.00;;;;;;;;5006398;28;45892;-86
2023/07/19 14:22:25;;;;;;;;;2.00;2.00;;;;;;;;5014535;28;44843;-82
2023/07/19 14:24:50;;;;;;;;;1.75;0.75;;;;;;;;5002901;28;45408;-86
2023/07/19 14:27:16;;;;;;;;;3.25;0.75;;;;;;;;5012541;28;48256;-84
2023/07/19 14:29:41;;;;;;;;;1.00;1.00;;;;;;;;5002228;28;44853;-85
2023/07/19 14:32:10;;;;;;;;;1.00;1.00;;;;;;;;5004763;28;45884;-85
2023/07/19 14:34:35;;;;;;;;;3.25;1.00;;;;;;;;4999150;28;45627;-85
2023/07/19 14:37:00;;;;;;;;;1.50;1.50;;;;;;;;4999732;28;46006;-87
2023/07/19 14:39:26;;;;;;;;;2.25;2.25;;;;;;;;5003067;28;45484;-83
2023/07/19 14:41:53;;;;;;;;;0.75;0.75;;;;;;;;5021026;28;45466;-85
2023/07/19 14:44:22;;;;;;;;;7.50;7.00;;;;;;;;5005589;28;45794;-85